sensor_id;sensor_type;location;lat;lon;timestamp;temperature;humidity
6666;DHT22;3369;49.906;8.598;2022-07-22T00:01:52;19.30;99.90
6666;DHT22;3369;49.906;8.598;2022-07-22T00:04:17;19.30;99.90
6666;DHT22;3369;49.906;8.598;2022-07-22T00:06:43;19.20;99.90
6666;DHT22;3369;49.906;8.598;2022-07-22T00:09:09;19.20;99.90
6666;DHT22;3369;49.906;8.598;2022-07-22T00:11:35;19.10;99.90
6666;DHT22;3369;49.906;8.598;2022-07-22T00:14:01;19.10;99.90
6666;DHT22;3369;49.906;8.598;2022-07-22T00:16:26;19.00;99.90
6666;DHT22;3369;49.906;8.598;2022-07-22T00:18:52;18.90;99.90
6666;DHT22;3369;49.906;8.598;2022-07-22T00:21:18;18.80;99.90
6666;DHT22;3369;49.906;8.598;2022-07-22T00:23:44;18.80;99.90
6666;DHT22;3369;49.906;8.598;2022-07-22T00:26:09;18.80;99.90
6666;DHT22;3369;49.906;8.598;2022-07-22T00:28:35;18.80;99.90
6666;DHT22;3369;49.906;8.598;2022-07-22T00:31:01;18.70;99.90
6666;DHT22;3369;49.906;8.598;2022-07-22T00:33:27;18.70;99.90
6666;DHT22;3369;49.906;8.598;2022-07-22T00:35:53;18.70;99.90
6666;DHT22;3369;49.906;8.598;2022-07-22T00:38:18;18.70;99.90
6666;DHT22;3369;49.906;8.598;2022-07-22T00:40:45;18.60;99.90
6666;DHT22;3369;49.906;8.598;2022-07-22T00:43:11;18.60;99.90
6666;DHT22;3369;49.906;8.598;2022-07-22T00:45:37;18.60;99.90
6666;DHT22;3369;49.906;8.598;2022-07-22T00:48:03;18.50;99.90
6666;DHT22;3369;49.906;8.598;2022-07-22T00:50:29;18.50;99.90
6666;DHT22;3369;49.906;8.598;2022-07-22T00:52:55;18.50;99.90
6666;DHT22;3369;49.906;8.598;2022-07-22T00:55:21;18.40;99.90
6666;DHT22;3369;49.906;8.598;2022-07-22T00:57:47;18.40;99.90
6666;DHT22;3369;49.906;8.598;2022-07-22T01:00:16;18.40;99.90
6666;DHT22;3369;49.906;8.598;2022-07-22T01:02:42;18.40;99.90
6666;DHT22;3369;49.906;8.598;2022-07-22T01:05:08;18.40;99.90
6666;DHT22;3369;49.906;8.598;2022-07-22T01:07:34;18.40;99.90
6666;DHT22;3369;49.906;8.598;2022-07-22T01:09:59;18.40;99.90
6666;DHT22;3369;49.906;8.598;2022-07-22T01:12:25;18.40;99.90
6666;DHT22;3369;49.906;8.598;2022-07-22T01:14:51;18.40;99.90
6666;DHT22;3369;49.906;8.598;2022-07-22T01:17:17;18.30;99.90
6666;DHT22;3369;49.906;8.598;2022-07-22T01:19:42;18.30;99.90
6666;DHT22;3369;49.906;8.598;2022-07-22T01:22:08;18.20;99.90
6666;DHT22;3369;49.906;8.598;2022-07-22T01:24:34;18.20;99.90
6666;DHT22;3369;49.906;8.598;2022-07-22T01:27:00;18.10;99.90
6666;DHT22;3369;49.906;8.598;2022-07-22T01:29:26;18.10;99.90
6666;DHT22;3369;49.906;8.598;2022-07-22T01:31:52;18.10;99.90
6666;DHT22;3369;49.906;8.598;2022-07-22T01:34:18;18.10;99.90
6666;DHT22;3369;49.906;8.598;2022-07-22T01:57:18;17.90;99.90
6666;DHT22;3369;49.906;8.598;2022-07-22T01:59:43;17.80;99.90
6666;DHT22;3369;49.906;8.598;2022-07-22T02:02:09;17.70;99.90
6666;DHT22;3369;49.906;8.598;2022-07-22T02:04:35;17.70;99.90
6666;DHT22;3369;49.906;8.598;2022-07-22T02:07:00;17.70;99.90
6666;DHT22;3369;49.906;8.598;2022-07-22T02:09:26;17.70;99.90
6666;DHT22;3369;49.906;8.598;2022-07-22T02:11:52;17.70;99.90
6666;DHT22;3369;49.906;8.598;2022-07-22T02:14:17;17.70;99.90
6666;DHT22;3369;49.906;8.598;2022-07-22T02:16:43;17.70;99.90
6666;DHT22;3369;49.906;8.598;2022-07-22T02:19:09;17.60;99.90
6666;DHT22;3369;49.906;8.598;2022-07-22T02:21:34;17.60;99.90
6666;DHT22;3369;49.906;8.598;2022-07-22T02:24:00;17.60;99.90
6666;DHT22;3369;49.906;8.598;2022-07-22T02:26:25;17.60;99.90
6666;DHT22;3369;49.906;8.598;2022-07-22T02:28:51;17.60;99.90
6666;DHT22;3369;49.906;8.598;2022-07-22T02:31:17;17.50;99.90
6666;DHT22;3369;49.906;8.598;2022-07-22T02:33:43;17.50;99.90
6666;DHT22;3369;49.906;8.598;2022-07-22T02:36:08;17.50;99.90
6666;DHT22;3369;49.906;8.598;2022-07-22T02:38:34;17.50;99.90
6666;DHT22;3369;49.906;8.598;2022-07-22T02:41:00;17.50;99.90
6666;DHT22;3369;49.906;8.598;2022-07-22T02:43:25;17.50;99.90
6666;DHT22;3369;49.906;8.598;2022-07-22T02:45:51;17.50;99.90
6666;DHT22;3369;49.906;8.598;2022-07-22T02:48:16;17.40;99.90
6666;DHT22;3369;49.906;8.598;2022-07-22T02:50:48;17.40;99.90
6666;DHT22;3369;49.906;8.598;2022-07-22T02:53:14;17.40;99.90
6666;DHT22;3369;49.906;8.598;2022-07-22T02:55:40;17.40;99.90
6666;DHT22;3369;49.906;8.598;2022-07-22T02:58:07;17.30;99.90
6666;DHT22;3369;49.906;8.598;2022-07-22T03:00:33;17.30;99.90
6666;DHT22;3369;49.906;8.598;2022-07-22T03:02:59;17.30;99.90
6666;DHT22;3369;49.906;8.598;2022-07-22T03:05:25;17.30;99.90
6666;DHT22;3369;49.906;8.598;2022-07-22T03:07:51;17.30;99.90
6666;DHT22;3369;49.906;8.598;2022-07-22T03:10:16;17.30;99.90
6666;DHT22;3369;49.906;8.598;2022-07-22T03:12:42;17.30;99.90
6666;DHT22;3369;49.906;8.598;2022-07-22T03:15:07;17.30;99.90
6666;DHT22;3369;49.906;8.598;2022-07-22T03:17:34;17.30;99.90
6666;DHT22;3369;49.906;8.598;2022-07-22T03:20:08;17.30;99.90
6666;DHT22;3369;49.906;8.598;2022-07-22T03:22:34;17.30;99.90
6666;DHT22;3369;49.906;8.598;2022-07-22T03:25:00;17.30;99.90
6666;DHT22;3369;49.906;8.598;2022-07-22T03:27:26;17.30;99.90
6666;DHT22;3369;49.906;8.598;2022-07-22T03:29:52;17.30;99.90
6666;DHT22;3369;49.906;8.598;2022-07-22T03:32:18;17.40;99.90
6666;DHT22;3369;49.906;8.598;2022-07-22T03:34:44;17.30;99.90
6666;DHT22;3369;49.906;8.598;2022-07-22T03:37:10;17.40;99.90
6666;DHT22;3369;49.906;8.598;2022-07-22T03:39:36;17.40;99.90
6666;DHT22;3369;49.906;8.598;2022-07-22T03:42:02;17.40;99.90
6666;DHT22;3369;49.906;8.598;2022-07-22T03:44:28;17.30;99.90
6666;DHT22;3369;49.906;8.598;2022-07-22T03:46:53;17.30;99.90
6666;DHT22;3369;49.906;8.598;2022-07-22T03:49:19;17.30;99.90
6666;DHT22;3369;49.906;8.598;2022-07-22T03:51:45;17.30;99.90
6666;DHT22;3369;49.906;8.598;2022-07-22T03:54:10;17.20;99.90
6666;DHT22;3369;49.906;8.598;2022-07-22T03:56:36;17.20;99.90
6666;DHT22;3369;49.906;8.598;2022-07-22T03:59:02;17.20;99.90
6666;DHT22;3369;49.906;8.598;2022-07-22T04:01:27;17.20;99.90
6666;DHT22;3369;49.906;8.598;2022-07-22T04:03:53;17.20;99.90
6666;DHT22;3369;49.906;8.598;2022-07-22T04:06:19;17.20;99.90
6666;DHT22;3369;49.906;8.598;2022-07-22T04:08:44;17.20;99.90
6666;DHT22;3369;49.906;8.598;2022-07-22T04:11:10;17.20;99.90
6666;DHT22;3369;49.906;8.598;2022-07-22T04:13:35;17.20;99.90
6666;DHT22;3369;49.906;8.598;2022-07-22T04:16:01;17.20;99.90
6666;DHT22;3369;49.906;8.598;2022-07-22T04:18:29;17.30;99.90
6666;DHT22;3369;49.906;8.598;2022-07-22T04:20:55;17.30;99.90
6666;DHT22;3369;49.906;8.598;2022-07-22T04:23:20;17.30;99.90
6666;DHT22;3369;49.906;8.598;2022-07-22T04:25:46;17.40;99.90
6666;DHT22;3369;49.906;8.598;2022-07-22T04:28:11;17.40;99.90
6666;DHT22;3369;49.906;8.598;2022-07-22T04:30:37;17.50;99.90
6666;DHT22;3369;49.906;8.598;2022-07-22T04:33:03;17.50;99.90
6666;DHT22;3369;49.906;8.598;2022-07-22T04:35:28;17.60;99.90
6666;DHT22;3369;49.906;8.598;2022-07-22T04:37:54;17.60;99.90
6666;DHT22;3369;49.906;8.598;2022-07-22T04:40:20;17.60;99.90
6666;DHT22;3369;49.906;8.598;2022-07-22T04:42:45;17.70;99.90
6666;DHT22;3369;49.906;8.598;2022-07-22T04:45:11;17.70;99.90
6666;DHT22;3369;49.906;8.598;2022-07-22T04:47:37;17.80;99.90
6666;DHT22;3369;49.906;8.598;2022-07-22T04:50:03;17.80;99.90
6666;DHT22;3369;49.906;8.598;2022-07-22T04:52:29;17.80;99.90
6666;DHT22;3369;49.906;8.598;2022-07-22T04:54:54;17.90;99.90
6666;DHT22;3369;49.906;8.598;2022-07-22T04:57:20;17.90;99.90
6666;DHT22;3369;49.906;8.598;2022-07-22T04:59:45;17.90;99.90
6666;DHT22;3369;49.906;8.598;2022-07-22T05:02:11;18.00;99.90
6666;DHT22;3369;49.906;8.598;2022-07-22T05:04:37;18.00;99.90
6666;DHT22;3369;49.906;8.598;2022-07-22T05:07:02;18.00;99.90
6666;DHT22;3369;49.906;8.598;2022-07-22T05:09:28;18.10;99.90
6666;DHT22;3369;49.906;8.598;2022-07-22T05:11:54;18.00;99.90
6666;DHT22;3369;49.906;8.598;2022-07-22T05:14:19;18.00;99.90
6666;DHT22;3369;49.906;8.598;2022-07-22T05:16:45;18.10;99.90
6666;DHT22;3369;49.906;8.598;2022-07-22T05:19:11;18.10;99.90
6666;DHT22;3369;49.906;8.598;2022-07-22T05:21:37;18.20;99.90
6666;DHT22;3369;49.906;8.598;2022-07-22T05:24:03;18.20;99.90
6666;DHT22;3369;49.906;8.598;2022-07-22T05:26:29;18.20;99.90
6666;DHT22;3369;49.906;8.598;2022-07-22T05:28:56;18.20;99.90
6666;DHT22;3369;49.906;8.598;2022-07-22T05:31:22;18.20;99.90
6666;DHT22;3369;49.906;8.598;2022-07-22T05:33:48;18.20;99.90
6666;DHT22;3369;49.906;8.598;2022-07-22T05:36:13;18.20;99.90
6666;DHT22;3369;49.906;8.598;2022-07-22T05:38:39;18.20;99.90
6666;DHT22;3369;49.906;8.598;2022-07-22T05:41:05;18.20;99.90
6666;DHT22;3369;49.906;8.598;2022-07-22T05:43:31;18.20;99.90
6666;DHT22;3369;49.906;8.598;2022-07-22T05:45:56;18.20;99.90
6666;DHT22;3369;49.906;8.598;2022-07-22T05:48:22;18.20;99.90
6666;DHT22;3369;49.906;8.598;2022-07-22T05:50:48;18.20;99.90
6666;DHT22;3369;49.906;8.598;2022-07-22T05:53:13;18.10;99.90
6666;DHT22;3369;49.906;8.598;2022-07-22T05:55:39;18.10;99.90
6666;DHT22;3369;49.906;8.598;2022-07-22T05:58:05;18.20;99.90
6666;DHT22;3369;49.906;8.598;2022-07-22T06:00:30;18.20;99.90
6666;DHT22;3369;49.906;8.598;2022-07-22T06:02:56;18.20;99.90
6666;DHT22;3369;49.906;8.598;2022-07-22T06:05:22;18.20;99.90
6666;DHT22;3369;49.906;8.598;2022-07-22T06:07:48;18.30;99.90
6666;DHT22;3369;49.906;8.598;2022-07-22T06:10:13;18.30;99.90
6666;DHT22;3369;49.906;8.598;2022-07-22T06:12:39;18.30;99.90
6666;DHT22;3369;49.906;8.598;2022-07-22T06:15:05;18.30;99.90
6666;DHT22;3369;49.906;8.598;2022-07-22T06:17:31;18.30;99.90
6666;DHT22;3369;49.906;8.598;2022-07-22T06:19:57;18.30;99.90
6666;DHT22;3369;49.906;8.598;2022-07-22T06:22:22;18.30;99.90
6666;DHT22;3369;49.906;8.598;2022-07-22T06:24:48;18.30;99.90
6666;DHT22;3369;49.906;8.598;2022-07-22T06:27:14;18.40;99.90
6666;DHT22;3369;49.906;8.598;2022-07-22T06:29:40;18.40;99.90
6666;DHT22;3369;49.906;8.598;2022-07-22T06:32:07;18.40;99.90
6666;DHT22;3369;49.906;8.598;2022-07-22T06:34:33;18.50;99.90
6666;DHT22;3369;49.906;8.598;2022-07-22T06:36:58;18.50;99.90
6666;DHT22;3369;49.906;8.598;2022-07-22T06:39:24;18.50;99.90
6666;DHT22;3369;49.906;8.598;2022-07-22T06:41:50;18.60;99.90
6666;DHT22;3369;49.906;8.598;2022-07-22T06:44:15;18.70;99.90
6666;DHT22;3369;49.906;8.598;2022-07-22T06:46:41;18.70;99.90
6666;DHT22;3369;49.906;8.598;2022-07-22T06:49:07;18.80;99.90
6666;DHT22;3369;49.906;8.598;2022-07-22T06:51:33;18.90;99.90
6666;DHT22;3369;49.906;8.598;2022-07-22T06:53:59;19.00;99.90
6666;DHT22;3369;49.906;8.598;2022-07-22T06:56:25;19.00;99.90
6666;DHT22;3369;49.906;8.598;2022-07-22T06:58:51;19.00;99.90
6666;DHT22;3369;49.906;8.598;2022-07-22T07:01:17;19.00;99.90
6666;DHT22;3369;49.906;8.598;2022-07-22T07:03:43;19.10;99.90
6666;DHT22;3369;49.906;8.598;2022-07-22T07:06:10;19.10;99.90
6666;DHT22;3369;49.906;8.598;2022-07-22T07:08:40;19.20;99.90
6666;DHT22;3369;49.906;8.598;2022-07-22T07:11:05;19.30;99.90
6666;DHT22;3369;49.906;8.598;2022-07-22T07:13:31;19.40;99.90
6666;DHT22;3369;49.906;8.598;2022-07-22T07:15:57;19.40;99.90
6666;DHT22;3369;49.906;8.598;2022-07-22T07:18:23;19.50;99.90
6666;DHT22;3369;49.906;8.598;2022-07-22T07:20:49;19.70;99.90
6666;DHT22;3369;49.906;8.598;2022-07-22T07:23:15;19.90;99.90
6666;DHT22;3369;49.906;8.598;2022-07-22T07:25:41;20.10;99.90
6666;DHT22;3369;49.906;8.598;2022-07-22T07:28:07;20.30;99.90
6666;DHT22;3369;49.906;8.598;2022-07-22T07:30:33;20.50;99.90
6666;DHT22;3369;49.906;8.598;2022-07-22T07:32:59;20.70;99.90
6666;DHT22;3369;49.906;8.598;2022-07-22T07:35:26;21.00;99.90
6666;DHT22;3369;49.906;8.598;2022-07-22T07:37:53;21.20;99.90
6666;DHT22;3369;49.906;8.598;2022-07-22T07:40:19;21.40;99.90
6666;DHT22;3369;49.906;8.598;2022-07-22T07:42:45;21.70;99.90
6666;DHT22;3369;49.906;8.598;2022-07-22T07:45:11;21.70;99.90
6666;DHT22;3369;49.906;8.598;2022-07-22T07:47:37;21.70;99.90
6666;DHT22;3369;49.906;8.598;2022-07-22T07:50:06;21.70;99.90
6666;DHT22;3369;49.906;8.598;2022-07-22T07:52:40;21.80;99.90
6666;DHT22;3369;49.906;8.598;2022-07-22T07:55:06;21.90;99.90
6666;DHT22;3369;49.906;8.598;2022-07-22T07:57:33;22.10;99.90
6666;DHT22;3369;49.906;8.598;2022-07-22T07:59:58;22.30;99.90
6666;DHT22;3369;49.906;8.598;2022-07-22T08:02:24;22.50;99.90
6666;DHT22;3369;49.906;8.598;2022-07-22T08:04:50;22.70;99.10
6666;DHT22;3369;49.906;8.598;2022-07-22T08:07:15;22.70;98.70
6666;DHT22;3369;49.906;8.598;2022-07-22T08:09:41;22.80;98.10
6666;DHT22;3369;49.906;8.598;2022-07-22T08:12:07;22.80;97.50
6666;DHT22;3369;49.906;8.598;2022-07-22T08:14:33;22.80;97.20
6666;DHT22;3369;49.906;8.598;2022-07-22T08:16:59;22.90;97.50
6666;DHT22;3369;49.906;8.598;2022-07-22T08:19:24;23.00;97.60
6666;DHT22;3369;49.906;8.598;2022-07-22T08:21:50;23.00;97.60
6666;DHT22;3369;49.906;8.598;2022-07-22T08:24:16;23.00;97.70
6666;DHT22;3369;49.906;8.598;2022-07-22T08:26:41;23.20;97.50
6666;DHT22;3369;49.906;8.598;2022-07-22T08:29:08;23.30;97.30
6666;DHT22;3369;49.906;8.598;2022-07-22T08:31:35;23.40;96.90
6666;DHT22;3369;49.906;8.598;2022-07-22T08:34:03;23.50;96.90
6666;DHT22;3369;49.906;8.598;2022-07-22T08:36:29;23.60;96.80
6666;DHT22;3369;49.906;8.598;2022-07-22T08:38:54;23.80;96.50
6666;DHT22;3369;49.906;8.598;2022-07-22T08:41:22;24.00;96.30
6666;DHT22;3369;49.906;8.598;2022-07-22T08:43:49;24.10;95.60
6666;DHT22;3369;49.906;8.598;2022-07-22T08:46:15;24.10;94.90
6666;DHT22;3369;49.906;8.598;2022-07-22T08:48:40;24.20;94.60
6666;DHT22;3369;49.906;8.598;2022-07-22T08:51:07;24.20;94.40
6666;DHT22;3369;49.906;8.598;2022-07-22T08:53:33;24.40;94.30
6666;DHT22;3369;49.906;8.598;2022-07-22T08:55:59;24.50;93.80
6666;DHT22;3369;49.906;8.598;2022-07-22T08:58:25;24.50;93.50
6666;DHT22;3369;49.906;8.598;2022-07-22T09:01:13;24.50;93.20
6666;DHT22;3369;49.906;8.598;2022-07-22T09:03:54;24.60;93.50
6666;DHT22;3369;49.906;8.598;2022-07-22T09:06:26;24.80;93.70
6666;DHT22;3369;49.906;8.598;2022-07-22T09:08:56;24.90;93.50
6666;DHT22;3369;49.906;8.598;2022-07-22T09:11:24;25.10;93.40
6666;DHT22;3369;49.906;8.598;2022-07-22T09:13:51;25.20;93.00
6666;DHT22;3369;49.906;8.598;2022-07-22T09:16:44;25.40;92.40
6666;DHT22;3369;49.906;8.598;2022-07-22T09:19:11;25.50;91.80
6666;DHT22;3369;49.906;8.598;2022-07-22T09:21:42;25.60;92.20
6666;DHT22;3369;49.906;8.598;2022-07-22T09:24:09;25.70;92.40
6666;DHT22;3369;49.906;8.598;2022-07-22T09:26:54;25.80;92.20
6666;DHT22;3369;49.906;8.598;2022-07-22T09:29:20;25.90;90.90
6666;DHT22;3369;49.906;8.598;2022-07-22T09:31:50;26.00;90.40
6666;DHT22;3369;49.906;8.598;2022-07-22T09:34:28;26.10;90.40
6666;DHT22;3369;49.906;8.598;2022-07-22T09:36:56;26.20;89.60
6666;DHT22;3369;49.906;8.598;2022-07-22T09:39:30;26.20;87.80
6666;DHT22;3369;49.906;8.598;2022-07-22T09:42:00;26.30;88.40
6666;DHT22;3369;49.906;8.598;2022-07-22T09:44:26;26.40;89.00
6666;DHT22;3369;49.906;8.598;2022-07-22T09:46:52;26.50;87.20
6666;DHT22;3369;49.906;8.598;2022-07-22T09:49:32;26.60;88.00
6666;DHT22;3369;49.906;8.598;2022-07-22T09:52:00;26.70;87.80
6666;DHT22;3369;49.906;8.598;2022-07-22T09:54:27;26.90;86.90
6666;DHT22;3369;49.906;8.598;2022-07-22T09:56:54;27.00;85.70
6666;DHT22;3369;49.906;8.598;2022-07-22T09:59:19;27.20;85.60
6666;DHT22;3369;49.906;8.598;2022-07-22T10:01:46;27.30;85.60
6666;DHT22;3369;49.906;8.598;2022-07-22T10:04:12;27.40;84.90
6666;DHT22;3369;49.906;8.598;2022-07-22T10:06:40;27.50;85.00
6666;DHT22;3369;49.906;8.598;2022-07-22T10:09:08;27.50;84.70
6666;DHT22;3369;49.906;8.598;2022-07-22T10:11:37;27.60;82.80
6666;DHT22;3369;49.906;8.598;2022-07-22T10:14:03;27.70;82.70
6666;DHT22;3369;49.906;8.598;2022-07-22T10:16:29;27.70;82.30
6666;DHT22;3369;49.906;8.598;2022-07-22T10:18:55;27.80;82.10
6666;DHT22;3369;49.906;8.598;2022-07-22T10:21:31;27.90;82.30
6666;DHT22;3369;49.906;8.598;2022-07-22T10:24:11;27.90;80.10
6666;DHT22;3369;49.906;8.598;2022-07-22T10:26:56;27.90;79.90
6666;DHT22;3369;49.906;8.598;2022-07-22T10:29:30;27.90;78.90
6666;DHT22;3369;49.906;8.598;2022-07-22T10:34:44;27.80;79.80
6666;DHT22;3369;49.906;8.598;2022-07-22T10:45:30;28.40;79.70
6666;DHT22;3369;49.906;8.598;2022-07-22T10:47:58;28.40;77.60
6666;DHT22;3369;49.906;8.598;2022-07-22T10:56:17;28.30;76.10
6666;DHT22;3369;49.906;8.598;2022-07-22T10:59:07;28.30;76.10
6666;DHT22;3369;49.906;8.598;2022-07-22T11:01:34;28.30;75.30
6666;DHT22;3369;49.906;8.598;2022-07-22T11:04:11;28.30;74.90
6666;DHT22;3369;49.906;8.598;2022-07-22T11:06:37;28.30;75.70
6666;DHT22;3369;49.906;8.598;2022-07-22T11:09:06;28.40;76.50
6666;DHT22;3369;49.906;8.598;2022-07-22T11:11:40;28.60;76.00
6666;DHT22;3369;49.906;8.598;2022-07-22T11:14:34;28.70;74.50
6666;DHT22;3369;49.906;8.598;2022-07-22T11:17:06;28.80;74.90
6666;DHT22;3369;49.906;8.598;2022-07-22T11:19:33;28.90;74.00
6666;DHT22;3369;49.906;8.598;2022-07-22T11:22:02;29.00;73.70
6666;DHT22;3369;49.906;8.598;2022-07-22T11:24:29;29.10;73.50
6666;DHT22;3369;49.906;8.598;2022-07-22T11:26:56;29.20;72.70
6666;DHT22;3369;49.906;8.598;2022-07-22T11:29:32;29.20;69.40
6666;DHT22;3369;49.906;8.598;2022-07-22T11:32:03;29.10;69.20
6666;DHT22;3369;49.906;8.598;2022-07-22T11:34:29;29.10;70.50
6666;DHT22;3369;49.906;8.598;2022-07-22T11:36:56;29.10;70.30
6666;DHT22;3369;49.906;8.598;2022-07-22T11:39:25;29.10;70.50
6666;DHT22;3369;49.906;8.598;2022-07-22T11:41:53;29.10;70.10
6666;DHT22;3369;49.906;8.598;2022-07-22T11:44:21;29.10;68.30
6666;DHT22;3369;49.906;8.598;2022-07-22T11:46:47;29.10;69.30
6666;DHT22;3369;49.906;8.598;2022-07-22T11:49:14;29.20;69.30
6666;DHT22;3369;49.906;8.598;2022-07-22T11:51:40;29.10;67.80
6666;DHT22;3369;49.906;8.598;2022-07-22T11:54:06;29.10;66.70
6666;DHT22;3369;49.906;8.598;2022-07-22T11:56:32;29.10;67.90
6666;DHT22;3369;49.906;8.598;2022-07-22T11:58:58;29.10;68.10
6666;DHT22;3369;49.906;8.598;2022-07-22T12:01:28;29.30;68.10
6666;DHT22;3369;49.906;8.598;2022-07-22T12:03:57;29.40;67.60
6666;DHT22;3369;49.906;8.598;2022-07-22T12:06:24;29.60;66.90
6666;DHT22;3369;49.906;8.598;2022-07-22T12:09:04;29.60;65.80
6666;DHT22;3369;49.906;8.598;2022-07-22T12:11:30;29.80;66.60
6666;DHT22;3369;49.906;8.598;2022-07-22T12:14:26;29.70;64.00
6666;DHT22;3369;49.906;8.598;2022-07-22T12:17:00;29.60;63.40
6666;DHT22;3369;49.906;8.598;2022-07-22T12:19:27;29.50;64.80
6666;DHT22;3369;49.906;8.598;2022-07-22T12:22:11;29.60;66.00
6666;DHT22;3369;49.906;8.598;2022-07-22T12:24:55;29.70;66.10
6666;DHT22;3369;49.906;8.598;2022-07-22T12:27:22;29.80;64.60
6666;DHT22;3369;49.906;8.598;2022-07-22T12:29:49;29.80;63.60
6666;DHT22;3369;49.906;8.598;2022-07-22T12:32:17;29.80;63.50
6666;DHT22;3369;49.906;8.598;2022-07-22T12:34:46;29.70;64.20
6666;DHT22;3369;49.906;8.598;2022-07-22T12:43:22;30.00;64.20
6666;DHT22;3369;49.906;8.598;2022-07-22T12:45:26;30.10;63.70
6666;DHT22;3369;49.906;8.598;2022-07-22T12:50:37;30.20;63.00
6666;DHT22;3369;49.906;8.598;2022-07-22T12:53:06;30.20;62.70
6666;DHT22;3369;49.906;8.598;2022-07-22T12:55:33;30.20;62.60
6666;DHT22;3369;49.906;8.598;2022-07-22T12:58:00;30.30;62.90
6666;DHT22;3369;49.906;8.598;2022-07-22T13:00:28;30.30;63.30
6666;DHT22;3369;49.906;8.598;2022-07-22T13:02:55;30.40;63.30
6666;DHT22;3369;49.906;8.598;2022-07-22T13:05:22;30.50;63.00
6666;DHT22;3369;49.906;8.598;2022-07-22T13:07:48;30.60;63.20
6666;DHT22;3369;49.906;8.598;2022-07-22T13:10:14;30.60;62.70
6666;DHT22;3369;49.906;8.598;2022-07-22T13:12:41;30.70;62.80
6666;DHT22;3369;49.906;8.598;2022-07-22T13:15:07;30.70;63.10
6666;DHT22;3369;49.906;8.598;2022-07-22T13:17:33;30.80;63.10
6666;DHT22;3369;49.906;8.598;2022-07-22T13:19:59;30.90;63.20
6666;DHT22;3369;49.906;8.598;2022-07-22T13:22:25;30.90;63.10
6666;DHT22;3369;49.906;8.598;2022-07-22T13:24:51;30.90;61.70
6666;DHT22;3369;49.906;8.598;2022-07-22T13:27:16;30.90;61.60
6666;DHT22;3369;49.906;8.598;2022-07-22T13:29:42;30.90;62.60
6666;DHT22;3369;49.906;8.598;2022-07-22T13:32:08;30.90;61.80
6666;DHT22;3369;49.906;8.598;2022-07-22T13:34:34;31.00;61.60
6666;DHT22;3369;49.906;8.598;2022-07-22T13:37:01;31.00;61.90
6666;DHT22;3369;49.906;8.598;2022-07-22T13:39:27;31.10;61.90
6666;DHT22;3369;49.906;8.598;2022-07-22T13:41:53;31.10;61.30
6666;DHT22;3369;49.906;8.598;2022-07-22T13:44:19;31.00;60.90
6666;DHT22;3369;49.906;8.598;2022-07-22T13:46:45;31.00;61.50
6666;DHT22;3369;49.906;8.598;2022-07-22T13:49:12;31.10;61.60
6666;DHT22;3369;49.906;8.598;2022-07-22T13:51:38;31.00;60.70
6666;DHT22;3369;49.906;8.598;2022-07-22T14:12:44;30.70;59.90
6666;DHT22;3369;49.906;8.598;2022-07-22T14:15:10;30.70;60.20
6666;DHT22;3369;49.906;8.598;2022-07-22T14:17:36;30.70;60.60
6666;DHT22;3369;49.906;8.598;2022-07-22T14:20:02;30.60;59.80
6666;DHT22;3369;49.906;8.598;2022-07-22T14:22:29;30.50;60.00
6666;DHT22;3369;49.906;8.598;2022-07-22T14:24:56;30.50;60.60
6666;DHT22;3369;49.906;8.598;2022-07-22T14:27:21;30.40;60.10
6666;DHT22;3369;49.906;8.598;2022-07-22T14:29:47;30.40;60.40
6666;DHT22;3369;49.906;8.598;2022-07-22T14:32:13;30.40;60.60
6666;DHT22;3369;49.906;8.598;2022-07-22T14:34:38;30.50;61.20
6666;DHT22;3369;49.906;8.598;2022-07-22T14:37:04;30.50;60.90
6666;DHT22;3369;49.906;8.598;2022-07-22T14:39:30;30.50;60.90
6666;DHT22;3369;49.906;8.598;2022-07-22T14:41:55;30.40;61.10
6666;DHT22;3369;49.906;8.598;2022-07-22T14:44:21;30.40;61.00
6666;DHT22;3369;49.906;8.598;2022-07-22T14:46:47;30.40;59.80
6666;DHT22;3369;49.906;8.598;2022-07-22T14:49:12;30.40;59.80
6666;DHT22;3369;49.906;8.598;2022-07-22T14:51:38;30.30;60.00
6666;DHT22;3369;49.906;8.598;2022-07-22T14:54:04;30.20;59.90
6666;DHT22;3369;49.906;8.598;2022-07-22T14:56:31;30.20;59.80
6666;DHT22;3369;49.906;8.598;2022-07-22T14:58:57;30.10;60.40
6666;DHT22;3369;49.906;8.598;2022-07-22T15:01:23;30.20;60.60
6666;DHT22;3369;49.906;8.598;2022-07-22T15:03:48;30.20;61.30
6666;DHT22;3369;49.906;8.598;2022-07-22T15:06:14;30.20;61.10
6666;DHT22;3369;49.906;8.598;2022-07-22T15:08:40;30.20;60.80
6666;DHT22;3369;49.906;8.598;2022-07-22T15:11:05;30.20;61.00
6666;DHT22;3369;49.906;8.598;2022-07-22T15:13:31;30.30;61.30
6666;DHT22;3369;49.906;8.598;2022-07-22T15:15:57;30.30;61.50
6666;DHT22;3369;49.906;8.598;2022-07-22T15:18:24;30.30;61.20
6666;DHT22;3369;49.906;8.598;2022-07-22T15:20:50;30.30;60.30
6666;DHT22;3369;49.906;8.598;2022-07-22T15:23:20;30.30;60.90
6666;DHT22;3369;49.906;8.598;2022-07-22T15:25:45;30.20;59.70
6666;DHT22;3369;49.906;8.598;2022-07-22T15:28:11;30.10;59.50
6666;DHT22;3369;49.906;8.598;2022-07-22T15:30:37;29.90;59.30
6666;DHT22;3369;49.906;8.598;2022-07-22T15:33:02;29.90;60.10
6666;DHT22;3369;49.906;8.598;2022-07-22T15:35:28;29.80;60.60
6666;DHT22;3369;49.906;8.598;2022-07-22T15:37:54;29.80;60.60
6666;DHT22;3369;49.906;8.598;2022-07-22T15:40:19;29.90;60.20
6666;DHT22;3369;49.906;8.598;2022-07-22T15:42:46;29.90;60.60
6666;DHT22;3369;49.906;8.598;2022-07-22T15:45:12;29.90;60.80
6666;DHT22;3369;49.906;8.598;2022-07-22T15:47:38;29.90;60.90
6666;DHT22;3369;49.906;8.598;2022-07-22T15:50:04;29.90;60.00
6666;DHT22;3369;49.906;8.598;2022-07-22T15:52:30;29.90;60.10
6666;DHT22;3369;49.906;8.598;2022-07-22T15:54:56;29.90;60.10
6666;DHT22;3369;49.906;8.598;2022-07-22T15:57:21;29.90;60.50
6666;DHT22;3369;49.906;8.598;2022-07-22T16:00:07;29.90;60.40
6666;DHT22;3369;49.906;8.598;2022-07-22T16:02:33;29.90;60.80
6666;DHT22;3369;49.906;8.598;2022-07-22T16:04:59;29.90;60.60
6666;DHT22;3369;49.906;8.598;2022-07-22T16:07:24;29.90;60.10
6666;DHT22;3369;49.906;8.598;2022-07-22T16:09:50;30.00;60.40
6666;DHT22;3369;49.906;8.598;2022-07-22T16:12:16;29.90;60.30
6666;DHT22;3369;49.906;8.598;2022-07-22T16:14:42;29.90;59.70
6666;DHT22;3369;49.906;8.598;2022-07-22T16:17:07;29.80;59.70
6666;DHT22;3369;49.906;8.598;2022-07-22T16:19:33;29.70;59.70
6666;DHT22;3369;49.906;8.598;2022-07-22T16:21:58;29.60;59.90
6666;DHT22;3369;49.906;8.598;2022-07-22T16:24:24;29.60;60.00
6666;DHT22;3369;49.906;8.598;2022-07-22T16:26:50;29.50;60.20
6666;DHT22;3369;49.906;8.598;2022-07-22T16:29:16;29.50;60.00
6666;DHT22;3369;49.906;8.598;2022-07-22T16:31:41;29.40;60.00
6666;DHT22;3369;49.906;8.598;2022-07-22T16:34:07;29.40;60.40
6666;DHT22;3369;49.906;8.598;2022-07-22T16:36:33;29.40;60.50
6666;DHT22;3369;49.906;8.598;2022-07-22T16:38:58;29.40;60.50
6666;DHT22;3369;49.906;8.598;2022-07-22T16:41:26;29.30;60.00
6666;DHT22;3369;49.906;8.598;2022-07-22T16:43:51;29.20;60.10
6666;DHT22;3369;49.906;8.598;2022-07-22T16:46:17;29.10;60.40
6666;DHT22;3369;49.906;8.598;2022-07-22T16:48:43;29.10;60.80
6666;DHT22;3369;49.906;8.598;2022-07-22T16:51:09;29.00;60.90
6666;DHT22;3369;49.906;8.598;2022-07-22T16:53:34;29.00;61.10
6666;DHT22;3369;49.906;8.598;2022-07-22T16:56:02;28.90;61.20
6666;DHT22;3369;49.906;8.598;2022-07-22T16:58:28;28.90;61.40
6666;DHT22;3369;49.906;8.598;2022-07-22T17:00:54;28.90;61.70
6666;DHT22;3369;49.906;8.598;2022-07-22T17:03:19;28.80;61.80
6666;DHT22;3369;49.906;8.598;2022-07-22T17:05:45;28.80;61.20